Time;durP1;ratioP1;P1;durP2;ratioP2;P2;SDS_P1;SDS_P2;PMS_P1;PMS_P2;Temp;Humidity;BMP_temperature;BMP_pressure;BME280_temperature;BME280_humidity;BME280_pressure;Samples;Min_cycle;Max_cycle;Signal;HPM_P1;HPM_P2
2021/12/14 06:22:52;;;;;;;0.80;0.80;;;;;;;6.36;100.00;101534.31;2803076;36;41915;-63
2021/12/14 06:25:24;;;;;;;0.77;0.77;;;;;;;6.01;100.00;101543.06;2615765;47;20165;-63
2021/12/14 06:27:59;;;;;;;0.70;0.70;;;;;;;6.06;100.00;101539.44;2662265;36;20756;-65
2021/12/14 06:30:32;;;;;;;0.73;0.73;;;;;;;5.90;100.00;101532.19;2526484;54;5000907;-63
2021/12/14 06:33:10;;;;;;;0.80;0.47;;;;;;;5.58;100.00;101543.31;2616961;47;20165;-63
2021/12/14 06:35:46;;;;;;;0.90;0.87;;;;;;;5.72;100.00;101512.91;2617856;54;20395;-64
2021/12/14 06:38:28;;;;;;;4.10;2.20;;;;;;;5.76;100.00;101532.56;2617797;47;20173;-63
2021/12/14 06:41:04;;;;;;;1.03;0.50;;;;;;;6.58;100.00;101538.78;2617992;54;20157;-65
2021/12/14 06:43:38;;;;;;;1.30;1.20;;;;;;;6.23;100.00;101551.00;2527491;36;5000278;-64
2021/12/14 06:46:11;;;;;;;0.27;0.27;;;;;;;6.81;100.00;101556.16;2619271;47;20157;-64
2021/12/14 06:48:44;;;;;;;0.83;0.83;;;;;;;6.09;100.00;101556.56;2618449;54;20158;-63
2021/12/14 06:51:18;;;;;;;1.40;0.80;;;;;;;5.49;100.00;101554.72;2618826;54;20162;-63
2021/12/14 06:53:55;;;;;;;0.97;0.97;;;;;;;5.92;100.00;101546.72;2527238;36;5000500;-64
2021/12/14 06:56:27;;;;;;;2.23;0.60;;;;;;;5.45;100.00;101559.97;2617847;46;20185;-63
2021/12/14 06:59:01;;;;;;;0.90;0.90;;;;;;;5.53;100.00;101552.91;2618125;50;20161;-64
2021/12/14 07:01:38;;;;;;;1.13;0.70;;;;;;;6.20;100.00;101554.53;2665584;36;20190;-63
2021/12/14 07:04:11;;;;;;;1.00;0.60;;;;;;;5.86;100.00;101544.31;2618106;47;20192;-63
2021/12/14 07:06:45;;;;;;;1.03;1.00;;;;;;;5.72;100.00;101545.53;2618708;54;20203;-63
2021/12/14 07:09:20;;;;;;;1.23;1.13;;;;;;;5.79;100.00;101550.47;2619050;54;20205;-64
2021/12/14 07:11:59;;;;;;;1.47;1.37;;;;;;;5.82;100.00;101545.25;2619673;39;20450;-63
2021/12/14 07:14:43;;;;;;;2.77;1.53;;;;;;;5.84;100.00;101553.78;2618206;54;20164;-63
2021/12/14 07:17:19;;;;;;;1.00;1.00;;;;;;;5.90;100.00;101566.50;2618874;54;20231;-66
2021/12/14 07:19:52;;;;;;;1.20;0.90;;;;;;;5.91;100.00;101533.88;2669978;36;20724;-67
2021/12/14 07:22:41;;;;;;;0.80;0.80;;;;;;;6.33;100.00;101534.41;2696216;36;20197;-65
2021/12/14 07:25:16;;;;;;;1.03;0.67;;;;;;;6.42;100.00;101555.59;2622344;54;20149;-66
2021/12/14 07:27:48;;;;;;;2.33;1.93;;;;;;;5.94;100.00;101549.25;2530306;36;5000922;-65
2021/12/14 07:30:26;;;;;;;0.93;0.57;;;;;;;6.01;100.00;101549.06;2620031;47;20180;-65
2021/12/14 07:33:00;;;;;;;1.70;1.60;;;;;;;5.79;100.00;101547.91;2619375;54;20175;-66
2021/12/14 07:35:38;;;;;;;2.80;2.10;;;;;;;5.81;100.00;101574.47;2619837;54;20656;-65
2021/12/14 07:38:25;;;;;;;1.27;1.03;;;;;;;5.45;100.00;101559.97;2619291;36;20301;-65
2021/12/14 07:41:08;;;;;;;1.13;1.00;;;;;;;5.64;100.00;101558.63;2619941;47;20168;-65
2021/12/14 07:43:44;;;;;;;1.73;1.60;;;;;;;5.28;100.00;101582.69;2620002;54;20683;-66
2021/12/14 07:46:20;;;;;;;2.53;1.37;;;;;;;5.05;100.00;101548.09;2619907;51;20171;-66
2021/12/14 07:48:54;;;;;;;1.97;1.73;;;;;;;5.06;100.00;101564.34;2529671;36;5000661;-65
2021/12/14 07:51:27;;;;;;;0.93;0.60;;;;;;;5.08;100.00;101553.16;2620183;47;20157;-66
2021/12/14 07:54:02;;;;;;;2.53;1.53;;;;;;;4.99;100.00;101566.22;2619769;47;20176;-66
2021/12/14 07:56:40;;;;;;;4.63;2.57;;;;;;;5.03;100.00;101562.69;2621539;39;20554;-66
2021/12/14 07:59:24;;;;;;;2.70;2.50;;;;;;;5.19;100.00;101565.75;2621289;54;20172;-65
2021/12/14 08:02:11;;;;;;;3.97;2.77;;;;;;;5.15;100.00;101580.41;2530712;54;5000795;-66
2021/12/14 08:04:44;;;;;;;2.13;1.50;;;;;;;5.48;100.00;101583.06;2620725;47;20155;-65
2021/12/14 08:07:25;;;;;;;2.97;1.80;;;;;;;5.44;100.00;101597.72;2623442;47;20177;-66
2021/12/14 08:10:05;;;;;;;2.47;2.20;;;;;;;5.35;100.00;101567.06;2626215;54;20164;-65
2021/12/14 08:12:41;;;;;;;3.20;1.50;;;;;;;5.87;100.00;101551.16;2530805;47;5000463;-65
2021/12/14 08:15:20;;;;;;;1.77;1.67;;;;;;;5.66;100.00;101577.44;2620709;54;20153;-66
2021/12/14 08:18:06;;;;;;;1.87;1.70;;;;;;;5.68;100.00;101585.97;2620708;47;20233;-66
2021/12/14 08:20:38;;;;;;;2.07;1.93;;;;;;;5.56;100.00;101570.84;2620527;54;20196;-66
2021/12/14 08:23:17;;;;;;;2.83;1.67;;;;;;;5.80;100.00;101585.66;2529947;47;5000940;-65
2021/12/14 08:25:47;;;;;;;2.83;2.13;;;;;;;5.68;100.00;101579.97;2620293;47;20213;-66
2021/12/14 08:28:21;;;;;;;3.37;2.10;;;;;;;5.81;100.00;101587.34;2619916;54;20175;-66
2021/12/14 08:31:10;;;;;;;3.27;2.27;;;;;;;5.90;100.00;101565.66;2620226;54;20164;-66
2021/12/14 08:33:41;;;;;;;4.80;2.60;;;;;;;6.24;100.00;101615.41;2620385;47;20157;-67
2021/12/14 08:36:16;;;;;;;3.10;1.93;;;;;;;6.03;100.00;101575.59;2530212;47;5000439;-65
2021/12/14 08:38:47;;;;;;;2.67;1.70;;;;;;;6.13;100.00;101575.38;2620066;47;20176;-66
2021/12/14 08:41:22;;;;;;;2.77;2.33;;;;;;;5.78;100.00;101566.81;2620057;47;20169;-66
2021/12/14 08:43:57;;;;;;;1.60;1.50;;;;;;;5.93;100.00;101576.75;2619770;47;20165;-65
2021/12/14 08:46:30;;;;;;;1.53;1.40;;;;;;;6.68;100.00;101583.19;2619582;47;20241;-65
2021/12/14 08:49:03;;;;;;;2.00;1.80;;;;;;;6.32;100.00;101567.06;2619695;54;20267;-66
2021/12/14 08:51:36;;;;;;;1.63;1.20;;;;;;;6.21;100.00;101581.16;2620701;47;20175;-65
2021/12/14 08:54:31;;;;;;;1.50;1.13;;;;;;;6.52;100.00;101566.50;2620767;39;20204;-66
2021/12/14 08:57:05;;;;;;;2.53;2.10;;;;;;;6.36;100.00;101567.81;2531067;39;5000750;-65
2021/12/14 08:59:39;;;;;;;2.50;2.03;;;;;;;6.52;100.00;101579.38;2626737;39;20587;-65
2021/12/14 09:02:13;;;;;;;2.57;2.13;;;;;;;6.10;100.00;101556.50;2622628;47;20158;-65
2021/12/14 09:04:47;;;;;;;3.70;1.77;;;;;;;6.26;100.00;101553.53;2621792;47;20168;-65
2021/12/14 09:07:23;;;;;;;2.43;2.23;;;;;;;6.53;100.00;101540.69;2621880;39;20663;-66
2021/12/14 09:09:54;;;;;;;1.03;0.60;;;;;;;6.87;100.00;101548.22;2531101;47;5000622;-65
2021/12/14 09:12:28;;;;;;;3.60;1.80;;;;;;;6.87;100.00;101526.72;2621431;47;20165;-65
2021/12/14 09:15:07;;;;;;;4.23;3.13;;;;;;;6.52;100.00;101538.13;2621307;47;20176;-64
2021/12/14 09:17:37;;;;;;;3.37;2.10;;;;;;;6.44;100.00;101537.53;2622081;54;20172;-66
2021/12/14 09:20:12;;;;;;;3.40;1.90;;;;;;;6.98;100.00;101538.38;2530298;36;5000836;-66
2021/12/14 09:22:45;;;;;;;2.93;2.13;;;;;;;6.89;100.00;101545.59;2622435;54;20240;-65
2021/12/14 09:25:18;;;;;;;8.40;4.57;;;;;;;6.67;100.00;101550.56;2624164;47;20167;-65
2021/12/14 09:27:49;;;;;;;4.93;2.90;;;;;;;6.36;100.00;101554.94;2620908;47;20241;-66
2021/12/14 09:30:25;;;;;;;3.90;3.27;;;;;;;6.61;100.00;101535.28;2619961;47;20149;-66
2021/12/14 09:32:57;;;;;;;4.53;2.13;;;;;;;6.46;100.00;101515.13;2529626;39;5001111;-65
2021/12/14 09:35:34;;;;;;;4.57;1.73;;;;;;;6.49;100.00;101539.09;2619700;47;20161;-65
2021/12/14 09:38:07;;;;;;;3.90;2.73;;;;;;;6.71;100.00;101530.66;2620028;54;20153;-66
2021/12/14 09:40:42;;;;;;;2.50;1.93;;;;;;;6.34;100.00;101536.13;2621488;54;20344;-66
2021/12/14 09:43:13;;;;;;;5.50;3.63;;;;;;;6.30;100.00;101540.47;2534025;36;5000145;-65
2021/12/14 09:45:51;;;;;;;3.10;2.20;;;;;;;6.61;100.00;101494.03;2621414;54;20174;-65
2021/12/14 09:48:25;;;;;;;7.20;3.87;;;;;;;6.41;100.00;101501.53;2622170;31;20604;-66
2021/12/14 09:50:57;;;;;;;3.10;2.73;;;;;;;6.43;100.00;101510.03;2620179;54;20150;-66
2021/12/14 09:53:30;;;;;;;10.07;4.70;;;;;;;6.22;100.00;101515.84;2530204;36;5000754;-65
2021/12/14 09:56:01;;;;;;;5.53;4.67;;;;;;;6.41;100.00;101511.84;2619366;47;20156;-65
2021/12/14 09:58:37;;;;;;;7.13;3.90;;;;;;;6.85;100.00;101519.06;2619721;54;20245;-65
2021/12/14 10:01:13;;;;;;;6.33;3.70;;;;;;;6.51;100.00;101508.94;2619378;54;20161;-66
2021/12/14 10:03:46;;;;;;;8.00;6.10;;;;;;;6.40;100.00;101500.69;2619553;54;20859;-67
2021/12/14 10:06:19;;;;;;;6.20;2.87;;;;;;;6.30;100.00;101512.13;2528869;36;5000692;-66
2021/12/14 10:08:57;;;;;;;4.40;3.90;;;;;;;6.43;100.00;101510.91;2619554;39;20571;-67
2021/12/14 10:11:42;;;;;;;4.27;3.20;;;;;;;6.44;100.00;101516.91;2619149;54;20161;-67
2021/12/14 10:14:14;;;;;;;4.60;3.60;;;;;;;6.43;100.00;101505.75;2619726;47;20266;-67
2021/12/14 10:16:48;;;;;;;8.60;3.93;;;;;;;6.38;100.00;101520.50;2529266;50;5000509;-65
2021/12/14 10:19:22;;;;;;;8.00;4.13;;;;;;;6.56;100.00;101496.75;2620319;47;20199;-65
2021/12/14 10:21:57;;;;;;;5.80;4.33;;;;;;;6.47;100.00;101499.59;2621402;47;20163;-66
2021/12/14 10:24:28;;;;;;;3.37;3.07;;;;;;;6.95;100.00;101474.00;2621536;54;20145;-66
2021/12/14 10:27:02;;;;;;;4.53;3.87;;;;;;;6.85;100.00;101482.94;2621905;47;20705;-65
2021/12/14 10:29:33;;;;;;;5.77;3.13;;;;;;;6.67;100.00;101498.97;2622076;54;20178;-66
2021/12/14 10:32:10;;;;;;;7.70;3.60;;;;;;;6.77;100.00;101472.03;2623260;47;20213;-65
2021/12/14 10:34:45;;;;;;;4.47;2.70;;;;;;;6.67;100.00;101480.09;2624377;39;20569;-66
2021/12/14 10:37:21;;;;;;;4.50;3.43;;;;;;;6.78;100.00;101493.50;2622033;39;20582;-65
2021/12/14 10:45:27;;;;;;;2.10;1.90;;;;;;;6.65;100.00;101511.09;2620526;54;20242;-65
2021/12/14 10:48:00;;;;;;;2.77;2.10;;;;;;;6.66;100.00;101496.47;2622897;54;20391;-66
2021/12/14 10:50:36;;;;;;;3.40;2.33;;;;;;;6.79;100.00;101502.91;2623343;36;20185;-66
2021/12/14 10:53:09;;;;;;;3.30;2.27;;;;;;;6.55;100.00;101507.09;2620204;54;20217;-66
2021/12/14 10:55:43;;;;;;;4.73;3.17;;;;;;;6.58;100.00;101492.38;2620893;47;20257;-66
2021/12/14 10:58:18;;;;;;;3.50;2.57;;;;;;;6.29;100.00;101513.06;2621131;47;20153;-66
2021/12/14 11:00:51;;;;;;;5.27;3.33;;;;;;;6.18;100.00;101484.16;2530730;39;5000903;-65
2021/12/14 11:03:27;;;;;;;3.50;2.53;;;;;;;6.67;100.00;101483.50;2619827;54;20162;-66
2021/12/14 11:06:08;;;;;;;1.60;1.30;;;;;;;6.48;100.00;101495.28;2620294;47;20186;-66
2021/12/14 11:08:49;;;;;;;3.13;2.40;;;;;;;6.53;100.00;101476.22;2620037;54;20688;-66
2021/12/14 11:11:30;;;;;;;4.93;2.50;;;;;;;6.65;100.00;101512.81;2620012;47;20713;-66
2021/12/14 11:14:02;;;;;;;4.07;2.77;;;;;;;6.42;100.00;101467.97;2529967;36;5000097;-66
2021/12/14 11:18:08;;;;;;;2.53;2.00;;;;;;;6.64;100.00;101483.63;2623071;47;20260;-66
2021/12/14 11:19:39;;;;;;;4.97;3.63;;;;;;;6.86;100.00;101487.19;2623022;54;20205;-66
2021/12/14 11:22:21;;;;;;;1.90;1.33;;;;;;;6.71;100.00;101516.06;2620712;54;20690;-67
2021/12/14 11:24:56;;;;;;;4.00;2.67;;;;;;;6.53;100.00;101508.91;2530128;47;5000621;-66
2021/12/14 11:27:28;;;;;;;2.50;2.07;;;;;;;6.65;100.00;101516.25;2622044;47;20187;-67
2021/12/14 11:30:15;;;;;;;4.87;3.20;;;;;;;6.46;100.00;101502.25;2624286;54;20245;-66
2021/12/14 11:32:47;;;;;;;4.57;2.87;;;;;;;6.64;100.00;101514.56;2621188;47;20157;-67
2021/12/14 11:35:25;;;;;;;5.20;4.30;;;;;;;6.36;100.00;101522.28;2530061;54;5000653;-66
2021/12/14 11:37:56;;;;;;;6.00;3.87;;;;;;;6.23;100.00;101527.81;2621018;47;20188;-66
2021/12/14 11:40:27;;;;;;;3.07;2.77;;;;;;;6.16;100.00;101531.47;2621352;54;20769;-66
2021/12/14 11:43:13;;;;;;;8.63;4.60;;;;;;;6.06;100.00;101487.94;2619713;46;20173;-67
2021/12/14 11:45:48;;;;;;;7.83;4.77;;;;;;;6.13;100.00;101527.25;2619706;47;20153;-66
2021/12/14 11:48:30;;;;;;;4.17;2.73;;;;;;;6.02;100.00;101535.28;2530563;47;5000276;-66
2021/12/14 11:51:07;;;;;;;3.43;2.07;;;;;;;5.90;100.00;101545.91;2619292;47;20165;-66
2021/12/14 11:53:37;;;;;;;5.70;2.63;;;;;;;5.69;100.00;101523.31;2619178;47;20157;-66
2021/12/14 11:56:10;;;;;;;3.77;2.60;;;;;;;5.71;100.00;101544.69;2619421;54;20161;-66
2021/12/14 11:58:43;;;;;;;5.53;1.90;;;;;;;5.73;100.00;101545.50;2528990;47;5000952;-66
2021/12/14 12:01:19;;;;;;;8.00;5.57;;;;;;;5.76;100.00;101527.41;2619384;47;20157;-66
2021/12/14 12:03:56;;;;;;;5.53;3.60;;;;;;;5.72;100.00;101536.09;2619561;47;20157;-67
2021/12/14 12:09:28;;;;;;;10.80;3.60;;;;;;;5.99;100.00;101524.22;2619675;54;20165;-66
2021/12/14 12:09:39;;;;;;;10.67;6.10;;;;;;;5.92;100.00;101531.28;2530394;47;5000161;-66
2021/12/14 12:12:22;;;;;;;9.63;4.83;;;;;;;5.82;100.00;101516.91;2623972;39;20550;-67
2021/12/14 12:14:55;;;;;;;3.93;2.63;;;;;;;5.89;100.00;101549.41;2623100;47;20162;-66
2021/12/14 12:17:32;;;;;;;10.53;6.60;;;;;;;5.70;100.00;101511.28;2623875;47;20188;-66
2021/12/14 12:20:18;;;;;;;4.77;2.80;;;;;;;5.79;100.00;101544.47;2621169;47;20196;-66
2021/12/14 12:22:53;;;;;;;9.57;4.63;;;;;;;5.94;100.00;101521.75;2621895;54;20686;-66
2021/12/14 12:25:29;;;;;;;11.43;6.60;;;;;;;5.89;100.00;101539.09;2622048;54;20157;-67
2021/12/14 12:28:01;;;;;;;10.47;6.37;;;;;;;5.75;100.00;101536.00;2623241;54;20287;-66
2021/12/14 12:30:43;;;;;;;6.47;4.93;;;;;;;5.94;100.00;101556.97;2622275;51;20208;-66
2021/12/14 12:33:18;;;;;;;12.73;5.30;;;;;;;5.78;100.00;101550.53;2531901;36;4999980;-67
2021/12/14 12:35:52;;;;;;;5.33;3.27;;;;;;;5.82;100.00;101544.44;2622307;54;20145;-66
2021/12/14 12:38:36;;;;;;;6.50;2.90;;;;;;;5.84;100.00;101540.06;2622038;54;20165;-66
2021/12/14 12:41:12;;;;;;;6.43;4.20;;;;;;;6.37;100.00;101551.47;2621681;39;20557;-66
2021/12/14 12:43:49;;;;;;;11.87;4.73;;;;;;;6.29;100.00;101558.59;2530000;36;5000697;-66
2021/12/14 12:46:23;;;;;;;10.90;6.17;;;;;;;6.23;100.00;101557.03;2619872;39;20606;-65
2021/12/14 12:49:16;;;;;;;5.57;4.40;;;;;;;5.87;100.00;101561.47;2620704;54;20287;-65
2021/12/14 12:52:02;;;;;;;7.80;4.90;;;;;;;6.34;100.00;101570.44;2624619;54;20161;-66
2021/12/14 12:54:51;;;;;;;7.77;4.90;;;;;;;5.91;100.00;101572.50;2532867;54;5000366;-66
2021/12/14 12:57:32;;;;;;;10.00;5.67;;;;;;;5.84;100.00;101570.97;2623851;39;20684;-66
2021/12/14 13:00:23;;;;;;;6.13;4.23;;;;;;;5.73;100.00;101585.84;2624347;39;20799;-66
2021/12/14 13:02:56;;;;;;;11.57;7.17;;;;;;;5.73;100.00;101576.41;2622166;54;20156;-66
2021/12/14 13:05:32;;;;;;;14.30;7.10;;;;;;;5.62;100.00;101593.84;2531940;31;5000161;-66
2021/12/14 13:08:12;;;;;;;12.77;8.77;;;;;;;5.61;100.00;101579.31;2621053;47;20213;-66
2021/12/14 13:10:51;;;;;;;9.43;5.43;;;;;;;5.59;100.00;101586.19;2619996;47;20160;-66
2021/12/14 13:13:24;;;;;;;8.90;6.10;;;;;;;5.79;100.00;101589.09;2620777;47;20256;-65
2021/12/14 13:15:58;;;;;;;10.90;5.43;;;;;;;5.82;100.00;101585.63;2620285;39;20552;-66
2021/12/14 13:18:54;;;;;;;5.70;4.63;;;;;;;6.43;100.00;101565.03;2529594;39;5000821;-65
2021/12/14 13:21:31;;;;;;;11.60;6.03;;;;;;;6.01;100.00;101576.56;2619437;54;20150;-66
2021/12/14 13:24:20;;;;;;;13.47;8.33;;;;;;;5.67;100.00;101543.09;2619594;39;20766;-66
2021/12/14 13:27:08;;;;;;;10.67;5.10;;;;;;;5.84;100.00;101597.56;2618788;54;20176;-66
2021/12/14 13:29:45;;;;;;;5.40;3.33;;;;;;;5.86;100.00;101585.50;2529198;54;5001001;-66
2021/12/14 13:32:21;;;;;;;11.80;6.07;;;;;;;5.66;100.00;101592.88;2620265;54;20152;-66
2021/12/14 13:34:57;;;;;;;11.30;5.97;;;;;;;5.62;100.00;101586.13;2621670;54;20164;-66
2021/12/14 13:37:31;;;;;;;14.40;7.93;;;;;;;5.42;100.00;101573.75;2619514;50;20286;-66
2021/12/14 13:40:02;;;;;;;12.27;5.80;;;;;;;5.56;100.00;101594.00;2529782;54;5000918;-65
2021/12/14 13:42:52;;;;;;;4.10;3.20;;;;;;;6.12;100.00;101595.13;2622193;47;20157;-66
2021/12/14 13:45:25;;;;;;;8.77;5.43;;;;;;;5.70;100.00;101604.78;2619535;54;20725;-66
2021/12/14 13:47:56;;;;;;;8.37;5.57;;;;;;;5.61;100.00;101584.44;2619360;51;20165;-65
2021/12/14 13:50:34;;;;;;;4.37;3.97;;;;;;;5.96;100.00;101602.44;2619220;47;20281;-65
2021/12/14 13:53:05;;;;;;;9.10;5.07;;;;;;;5.70;100.00;101607.34;2622102;54;20156;-66
2021/12/14 13:55:40;;;;;;;4.67;3.23;;;;;;;5.56;100.00;101594.84;2620701;54;20171;-65
2021/12/14 13:58:18;;;;;;;11.27;6.53;;;;;;;5.77;100.00;101611.50;2619768;54;20163;-66
2021/12/14 14:00:53;;;;;;;12.40;6.20;;;;;;;5.73;100.00;101622.75;2622515;54;20171;-66
2021/12/14 14:03:28;;;;;;;13.53;8.43;;;;;;;5.59;100.00;101623.09;2620380;39;20597;-66
2021/12/14 14:06:01;;;;;;;8.97;4.73;;;;;;;5.60;100.00;101598.19;2620235;39;20762;-67
2021/12/14 14:08:35;;;;;;;8.63;5.67;;;;;;;6.11;100.00;101619.19;2621745;54;20161;-66
2021/12/14 14:11:13;;;;;;;7.33;3.50;;;;;;;5.68;100.00;101616.00;2621678;54;20165;-66
2021/12/14 14:13:46;;;;;;;9.07;6.10;;;;;;;5.88;100.00;101634.41;2530916;54;5000161;-66
2021/12/14 14:16:17;;;;;;;7.23;3.83;;;;;;;5.67;100.00;101628.03;2622055;54;20177;-65
2021/12/14 14:18:51;;;;;;;5.77;4.20;;;;;;;5.60;100.00;101609.34;2622000;47;20204;-66
2021/12/14 14:21:31;;;;;;;10.83;4.77;;;;;;;5.40;100.00;101603.00;2621207;54;20172;-65
2021/12/14 14:24:02;;;;;;;7.43;4.57;;;;;;;5.40;100.00;101621.00;2529689;54;5000416;-65
2021/12/14 14:26:42;;;;;;;5.17;3.43;;;;;;;5.60;100.00;101619.63;2620893;54;20164;-66
2021/12/14 14:29:17;;;;;;;13.13;6.27;;;;;;;5.52;100.00;101623.28;2626699;54;20230;-66
2021/12/14 14:31:50;;;;;;;7.27;4.37;;;;;;;5.74;100.00;101626.19;2620401;47;20274;-65
2021/12/14 14:34:26;;;;;;;6.37;4.73;;;;;;;5.77;100.00;101621.78;2620649;54;20704;-65
2021/12/14 14:37:07;;;;;;;2.90;2.07;;;;;;;5.78;100.00;101626.03;2621622;47;20188;-65
2021/12/14 14:39:46;;;;;;;1.70;1.13;;;;;;;6.13;100.00;101624.31;2622976;54;20165;-66
2021/12/14 14:42:21;;;;;;;5.07;3.70;;;;;;;6.27;100.00;101622.19;2621765;39;20574;-66
2021/12/14 14:44:56;;;;;;;5.27;3.50;;;;;;;6.23;100.00;101630.91;2620608;54;20172;-66
2021/12/14 14:47:38;;;;;;;8.50;3.20;;;;;;;5.89;100.00;101638.69;2530288;36;5000423;-66
2021/12/14 14:50:29;;;;;;;3.47;2.10;;;;;;;6.77;100.00;101634.50;2620246;54;20248;-66
2021/12/14 14:53:05;;;;;;;2.63;2.00;;;;;;;7.53;100.00;101645.03;2621601;54;20247;-65
2021/12/14 14:55:39;;;;;;;3.90;1.83;;;;;;;6.70;100.00;101653.59;2621572;54;20547;-65
2021/12/14 14:58:14;;;;;;;5.03;3.00;;;;;;;-141.38;100.00;59521.94;2530700;54;5000097;-66
2021/12/14 15:00:59;;;;;;;4.97;4.20;;;;;;;-141.38;100.00;59521.94;2620451;47;20167;-65
2021/12/14 15:03:37;;;;;;;9.10;4.40;;;;;;;-141.38;100.00;59521.94;2620048;54;20149;-65
2021/12/14 15:06:15;;;;;;;4.30;3.27;;;;;;;-141.38;100.00;59521.94;2620134;54;20169;-65
2021/12/14 15:08:51;;;;;;;8.43;5.63;;;;;;;-141.38;100.00;59521.94;2529683;47;5000156;-65
2021/12/14 15:11:42;;;;;;;7.07;5.13;;;;;;;-141.38;100.00;59521.94;2623986;39;20589;-65
2021/12/14 15:14:17;;;;;;;5.00;3.20;;;;;;;-141.38;100.00;59521.94;2623846;54;20246;-65
2021/12/14 15:16:57;;;;;;;2.73;2.37;;;;;;;-141.38;100.00;59521.94;2622096;54;20149;-65
2021/12/14 15:19:38;;;;;;;5.63;3.03;;;;;;;-141.38;100.00;59521.94;2621171;54;20201;-65
2021/12/14 15:22:15;;;;;;;2.87;1.90;;;;;;;-141.38;100.00;59521.94;2530444;54;5001032;-65
2021/12/14 15:25:08;;;;;;;3.00;2.33;;;;;;;-141.38;100.00;59521.94;2620942;54;20171;-65
2021/12/14 15:27:49;;;;;;;6.90;3.87;;;;;;;-141.38;100.00;59521.94;2621224;54;20160;-65
2021/12/14 15:30:32;;;;;;;7.57;5.27;;;;;;;-141.38;100.00;59521.94;2620182;54;20674;-66
2021/12/14 15:33:25;;;;;;;6.07;3.57;;;;;;;-141.38;100.00;59521.94;2532011;54;5000428;-65
2021/12/14 15:36:12;;;;;;;3.97;2.47;;;;;;;-141.38;100.00;59521.94;2621088;54;20678;-65
2021/12/14 15:38:47;;;;;;;11.20;4.57;;;;;;;-141.38;100.00;59521.94;2620454;54;20149;-64
2021/12/14 15:41:26;;;;;;;3.07;2.40;;;;;;;-141.38;100.00;59521.94;2621476;39;20561;-65
2021/12/14 15:44:01;;;;;;;6.73;2.97;;;;;;;-141.38;100.00;59521.94;2532777;54;5000290;-65
2021/12/14 15:46:35;;;;;;;6.07;4.40;;;;;;;-141.38;100.00;59521.94;2622859;54;20157;-65
2021/12/14 15:49:15;;;;;;;6.83;4.53;;;;;;;-141.38;100.00;59521.94;2621249;39;20561;-65
2021/12/14 15:51:48;;;;;;;7.37;4.50;;;;;;;-141.38;100.00;59521.94;2620822;54;20173;-65
2021/12/14 15:54:29;;;;;;;6.23;4.27;;;;;;;-141.38;100.00;59521.94;2530639;54;5000769;-64
2021/12/14 15:57:06;;;;;;;4.43;3.60;;;;;;;-141.38;100.00;59521.94;2621413;54;20264;-66
2021/12/14 15:59:39;;;;;;;6.57;4.43;;;;;;;-141.38;100.00;59521.94;2619930;54;20164;-64
2021/12/14 16:02:17;;;;;;;4.37;3.80;;;;;;;-141.38;100.00;59521.94;2619091;54;20165;-66
2021/12/14 16:04:54;;;;;;;4.73;2.77;;;;;;;-141.38;100.00;59521.94;2620304;54;20150;-64
2021/12/14 16:07:28;;;;;;;5.97;3.67;;;;;;;-141.38;100.00;59521.94;2535562;54;5001756;-65
2021/12/14 16:10:05;;;;;;;3.03;2.37;;;;;;;-141.38;100.00;59521.94;2622388;54;20187;-65
2021/12/14 16:15:23;;;;;;;1.43;1.33;;;;;;;-141.38;100.00;59521.94;2620945;54;20171;-65
2021/12/14 16:17:55;;;;;;;5.67;3.87;;;;;;;-141.38;100.00;59521.94;2619425;54;20173;-65
2021/12/14 16:20:34;;;;;;;6.27;3.50;;;;;;;-141.38;100.00;59521.94;2619565;54;20201;-66
2021/12/14 16:23:08;;;;;;;5.33;3.90;;;;;;;-141.38;100.00;59521.94;2619950;54;20157;-66
2021/12/14 16:25:40;;;;;;;4.50;2.90;;;;;;;-141.38;100.00;59521.94;2619476;54;20159;-66
2021/12/14 16:28:14;;;;;;;4.37;3.27;;;;;;;-141.38;100.00;59521.94;2619528;47;20697;-65
2021/12/14 16:30:47;;;;;;;3.87;2.83;;;;;;;-141.38;100.00;59521.94;2619633;54;20184;-65
2021/12/14 16:33:22;;;;;;;3.30;2.47;;;;;;;-141.38;100.00;59521.94;2619332;54;20148;-65
2021/12/14 16:35:59;;;;;;;2.90;1.63;;;;;;;-141.38;100.00;59521.94;2619191;54;20183;-65
2021/12/14 16:38:33;;;;;;;3.20;2.53;;;;;;;-141.38;100.00;59521.94;2619552;54;20157;-65
2021/12/14 16:41:06;;;;;;;5.40;4.03;;;;;;;-141.38;100.00;59521.94;2619769;54;20173;-65
2021/12/14 16:43:40;;;;;;;6.33;4.13;;;;;;;-141.38;100.00;59521.94;2619427;54;20738;-66
2021/12/14 16:46:23;;;;;;;4.07;3.37;;;;;;;-141.38;100.00;59521.94;2620339;54;20150;-66
2021/12/14 16:48:54;;;;;;;1.50;1.37;;;;;;;-141.38;100.00;59521.94;2620906;54;20694;-65
2021/12/14 16:51:27;;;;;;;2.80;2.00;;;;;;;-141.38;100.00;59521.94;2620156;39;20670;-65
2021/12/14 16:54:01;;;;;;;8.00;4.40;;;;;;;-141.38;100.00;59521.94;2621067;54;20157;-65
2021/12/14 16:56:33;;;;;;;6.10;2.83;;;;;;;-141.38;100.00;59521.94;2621024;39;20546;-65
2021/12/14 16:59:10;;;;;;;6.33;3.40;;;;;;;-141.38;100.00;59521.94;2620132;54;20162;-66
2021/12/14 17:01:42;;;;;;;4.23;2.77;;;;;;;-141.38;100.00;59521.94;2620498;47;20157;-65
2021/12/14 17:04:13;;;;;;;6.37;4.63;;;;;;;-141.38;100.00;59521.94;2619542;54;20165;-65
2021/12/14 17:06:47;;;;;;;9.63;4.03;;;;;;;-141.38;100.00;59521.94;2620200;54;20145;-65
2021/12/14 17:09:18;;;;;;;4.60;3.10;;;;;;;-141.38;100.00;59521.94;2620794;54;20154;-65
2021/12/14 17:11:50;;;;;;;6.80;4.70;;;;;;;-141.38;100.00;59521.94;2624275;54;20158;-66
2021/12/14 17:14:25;;;;;;;3.67;2.60;;;;;;;-141.38;100.00;59521.94;2620978;54;20165;-66
2021/12/14 17:17:03;;;;;;;7.70;4.57;;;;;;;-141.38;100.00;59521.94;2620768;54;20161;-65
2021/12/14 17:19:35;;;;;;;6.57;4.57;;;;;;;-141.38;100.00;59521.94;2620027;54;20244;-65
2021/12/14 17:22:12;;;;;;;5.77;4.17;;;;;;;-141.38;100.00;59521.94;2619481;54;20171;-65
2021/12/14 17:24:47;;;;;;;5.00;3.93;;;;;;;-141.38;100.00;59521.94;2619925;54;20145;-65
2021/12/14 17:27:20;;;;;;;6.73;3.70;;;;;;;-141.38;100.00;59521.94;2621409;47;20165;-65
2021/12/14 17:29:54;;;;;;;7.47;5.33;;;;;;;-141.38;100.00;59521.94;2620208;54;20688;-65
2021/12/14 17:32:28;;;;;;;3.73;2.80;;;;;;;-141.38;100.00;59521.94;2620043;54;20704;-66
2021/12/14 17:35:02;;;;;;;3.93;2.77;;;;;;;-141.38;100.00;59521.94;2620715;54;20173;-65
2021/12/14 17:37:38;;;;;;;10.33;3.93;;;;;;;-141.38;100.00;59521.94;2619929;54;20165;-65
2021/12/14 17:40:16;;;;;;;4.63;2.30;;;;;;;-141.38;100.00;59521.94;2619710;47;20165;-65
2021/12/14 17:42:50;;;;;;;4.17;3.50;;;;;;;-141.38;100.00;59521.94;2619876;54;20149;-66
2021/12/14 17:45:23;;;;;;;4.37;2.57;;;;;;;-141.38;100.00;59521.94;2620628;39;20534;-65
2021/12/14 17:47:56;;;;;;;3.57;2.70;;;;;;;-141.38;100.00;59521.94;2626430;54;20160;-65
2021/12/14 17:50:30;;;;;;;3.13;1.70;;;;;;;-141.38;100.00;59521.94;2620294;54;20148;-65
2021/12/14 17:53:06;;;;;;;4.17;2.03;;;;;;;-141.38;100.00;59521.94;2623106;54;20149;-66
2021/12/14 17:55:40;;;;;;;3.17;2.27;;;;;;;-141.38;100.00;59521.94;2620862;54;20161;-65
2021/12/14 17:58:13;;;;;;;4.77;2.77;;;;;;;-141.38;100.00;59521.94;2619678;54;20278;-66
2021/12/14 18:00:48;;;;;;;4.53;2.87;;;;;;;-141.38;100.00;59521.94;2620078;54;20241;-65
2021/12/14 18:03:21;;;;;;;3.53;1.83;;;;;;;-141.38;100.00;59521.94;2620077;47;20165;-65
2021/12/14 18:05:54;;;;;;;5.37;2.93;;;;;;;-141.38;100.00;59521.94;2620228;54;20152;-65
2021/12/14 18:08:30;;;;;;;3.47;2.67;;;;;;;-141.38;100.00;59521.94;2619965;54;20157;-66
2021/12/14 18:11:07;;;;;;;1.23;1.07;;;;;;;-141.38;100.00;59521.94;2620069;54;20156;-65
2021/12/14 18:13:41;;;;;;;4.43;2.33;;;;;;;-141.38;100.00;59521.94;2620020;54;20149;-65
2021/12/14 18:16:17;;;;;;;3.00;1.47;;;;;;;-141.38;100.00;59521.94;2620087;54;20165;-65
2021/12/14 18:21:36;;;;;;;3.20;1.03;;;;;;;-141.38;100.00;59521.94;2621010;54;20145;-65
2021/12/14 18:24:12;;;;;;;3.07;2.50;;;;;;;-141.38;100.00;59521.94;2620209;54;20146;-65
2021/12/14 18:26:45;;;;;;;3.03;1.43;;;;;;;-141.38;100.00;59521.94;2620122;54;20153;-65
2021/12/14 18:29:18;;;;;;;6.77;1.57;;;;;;;-141.38;100.00;59521.94;2620999;54;20228;-65
2021/12/14 18:31:55;;;;;;;4.53;3.27;;;;;;;-141.38;100.00;59521.94;2619471;54;20165;-65